createdAt,value
2018-04-16T00:00:54.681Z,3.20
2018-04-16T00:02:01.437Z,3.00
2018-04-16T00:03:08.273Z,2.90
2018-04-16T00:04:15.147Z,3.10
2018-04-16T00:05:21.898Z,3.20
2018-04-16T00:06:28.709Z,3.20
2018-04-16T00:07:35.503Z,3.20
2018-04-16T00:08:42.261Z,3.30
2018-04-16T00:09:48.943Z,3.20
2018-04-16T00:10:55.772Z,3.20
2018-04-16T00:12:02.481Z,2.90
2018-04-16T00:13:09.227Z,3.10
2018-04-16T00:14:15.976Z,3.30
2018-04-16T00:15:22.711Z,3.30
2018-04-16T00:16:29.772Z,3.50
2018-04-16T00:17:36.502Z,3.30
2018-04-16T00:18:43.248Z,3.20
2018-04-16T00:19:49.991Z,3.00
2018-04-16T00:20:56.739Z,3.00
2018-04-16T00:22:03.488Z,3.20
2018-04-16T00:23:10.295Z,3.10
2018-04-16T00:24:17.080Z,3.20
2018-04-16T00:25:23.866Z,3.50
2018-04-16T00:26:31.532Z,3.20
2018-04-16T00:27:37.336Z,2.80
2018-04-16T00:28:44.081Z,3.20
2018-04-16T00:29:50.895Z,3.20
2018-04-16T00:30:57.752Z,3.50
2018-04-16T00:32:04.861Z,3.10
2018-04-16T00:33:11.655Z,3.00
2018-04-16T00:34:20.776Z,3.00
2018-04-16T00:35:27.739Z,3.10
2018-04-16T00:36:35.267Z,3.00
2018-04-16T00:37:45.339Z,3.20
2018-04-16T00:38:49.211Z,2.90
2018-04-16T00:39:56.044Z,3.20
2018-04-16T00:41:04.070Z,3.50
2018-04-16T00:42:12.987Z,3.30
2018-04-16T00:43:23.011Z,3.30
2018-04-16T00:44:31.832Z,3.00
2018-04-16T00:45:45.064Z,3.30
2018-04-16T00:46:53.483Z,3.30
2018-04-16T00:48:02.500Z,3.30
2018-04-16T00:49:09.747Z,3.20
2018-04-16T00:50:17.105Z,3.90
2018-04-16T00:51:23.755Z,4.10
2018-04-16T00:52:37.100Z,3.50
2018-04-16T00:53:48.196Z,3.50
2018-04-16T00:54:55.308Z,3.20
2018-04-16T00:56:06.172Z,3.20
2018-04-16T00:57:16.248Z,3.20
2018-04-16T00:58:26.157Z,3.00
2018-04-16T00:59:38.800Z,3.30
2018-04-16T01:00:45.757Z,2.90
2018-04-16T01:01:52.815Z,3.10
2018-04-16T01:02:59.516Z,3.10
2018-04-16T01:04:07.227Z,3.00
2018-04-16T01:05:14.172Z,3.00
2018-04-16T01:07:29.878Z,3.00
2018-04-16T01:08:36.622Z,3.30
2018-04-16T01:09:43.541Z,3.10
2018-04-16T01:10:51.583Z,3.30
2018-04-16T01:12:03.607Z,2.90
2018-04-16T01:13:10.496Z,3.10
2018-04-16T01:14:23.534Z,3.10
2018-04-16T01:15:30.422Z,3.30
2018-04-16T01:16:39.466Z,3.40
2018-04-16T01:17:48.494Z,3.10
2018-04-16T01:18:55.186Z,3.90
2018-04-16T01:20:03.198Z,3.80
2018-04-16T01:21:12.987Z,3.30
2018-04-16T01:22:21.305Z,3.30
2018-04-16T01:23:28.287Z,3.30
2018-04-16T01:24:40.419Z,3.30
2018-04-16T01:25:48.552Z,3.30
2018-04-16T01:26:55.498Z,3.40
2018-04-16T01:28:06.322Z,3.40
2018-04-16T01:29:18.014Z,3.20
2018-04-16T01:30:24.946Z,3.10
2018-04-16T01:31:31.938Z,3.10
2018-04-16T01:32:42.767Z,3.10
2018-04-16T01:33:51.782Z,3.00
2018-04-16T01:35:01.789Z,3.20
2018-04-16T01:36:12.679Z,3.20
2018-04-16T01:37:19.819Z,3.40
2018-04-16T01:38:30.766Z,3.40
2018-04-16T01:39:42.682Z,3.20
2018-04-16T01:40:55.427Z,3.40
2018-04-16T01:42:06.201Z,3.00
2018-04-16T01:43:13.198Z,3.40
2018-04-16T01:44:20.014Z,3.20
2018-04-16T01:45:28.235Z,3.10
2018-04-16T01:46:37.482Z,3.60
2018-04-16T01:47:45.487Z,3.40
2018-04-16T01:48:53.203Z,3.50
2018-04-16T01:50:02.246Z,3.40
2018-04-16T01:51:13.399Z,3.40
2018-04-16T01:52:21.334Z,3.80
2018-04-16T01:53:29.899Z,3.50
2018-04-16T01:54:37.094Z,3.30
2018-04-16T01:59:04.317Z,3.70
2018-04-16T02:00:13.445Z,3.40
2018-04-16T02:01:22.390Z,3.20
2018-04-16T02:02:29.470Z,3.30
2018-04-16T02:03:36.383Z,3.70
2018-04-16T02:04:45.322Z,3.60
2018-04-16T02:05:58.483Z,3.30
2018-04-16T02:07:05.405Z,3.50
2018-04-16T02:11:35.226Z,3.50
2018-04-16T02:12:42.067Z,3.40
2018-04-16T02:14:54.316Z,3.50
2018-04-16T02:16:02.177Z,3.70
2018-04-16T02:17:12.292Z,3.30
2018-04-16T02:18:19.155Z,3.30
2018-04-16T02:19:28.071Z,3.10
2018-04-16T02:20:40.130Z,3.20
2018-04-16T02:21:50.037Z,3.30
2018-04-16T02:23:03.187Z,3.60
2018-04-16T02:24:12.200Z,3.40
2018-04-16T02:25:21.163Z,3.40
2018-04-16T02:26:32.237Z,3.40
2018-04-16T02:27:49.049Z,3.40
2018-04-16T02:28:56.134Z,3.50
2018-04-16T02:30:07.285Z,3.50
2018-04-16T02:31:17.247Z,3.50
2018-04-16T02:32:24.103Z,3.90
2018-04-16T02:38:58.468Z,3.50
2018-04-16T02:40:07.434Z,3.80
2018-04-16T02:42:19.107Z,3.30
2018-04-16T02:43:26.070Z,3.30
2018-04-16T02:44:33.771Z,3.70
2018-04-16T02:45:44.875Z,3.70
2018-04-16T02:46:52.876Z,3.20
2018-04-16T02:48:05.812Z,3.50
2018-04-16T02:49:13.882Z,3.50
2018-04-16T02:50:21.791Z,3.80
2018-04-16T02:51:28.699Z,3.60
2018-04-16T02:52:41.746Z,3.30
2018-04-16T02:53:48.431Z,2.90
2018-04-16T02:54:55.267Z,3.60
2018-04-16T02:56:03.100Z,3.50
2018-04-16T02:57:10.083Z,3.50
2018-04-16T02:58:17.238Z,3.80
2018-04-16T02:59:25.429Z,3.80
2018-04-16T03:00:32.408Z,3.60
2018-04-16T03:01:39.231Z,3.70
2018-04-16T03:02:46.204Z,3.90
2018-04-16T03:03:53.139Z,3.70
2018-04-16T03:05:00.340Z,3.70
2018-04-16T03:07:12.098Z,3.80
2018-04-16T03:08:21.170Z,3.40
2018-04-16T03:09:34.221Z,3.80
2018-04-16T03:10:41.176Z,3.50
2018-04-16T03:11:48.479Z,4.00
2018-04-16T03:12:57.495Z,3.60
2018-04-16T03:14:04.471Z,3.30
2018-04-16T03:15:13.457Z,3.40
2018-04-16T03:16:26.739Z,3.40
2018-04-16T03:17:33.855Z,4.00
2018-04-16T03:18:42.879Z,4.50
2018-04-16T03:19:49.746Z,4.10
2018-04-16T03:20:59.898Z,3.90
2018-04-16T03:22:11.755Z,3.90
2018-04-16T03:23:24.833Z,4.00
2018-04-16T03:24:37.852Z,3.90
2018-04-16T03:25:45.140Z,3.70
2018-04-16T03:26:54.182Z,4.00
2018-04-16T03:28:01.170Z,3.70
2018-04-16T03:30:15.836Z,3.80
2018-04-16T03:31:22.907Z,3.80
2018-04-16T03:32:34.892Z,3.80
2018-04-16T03:33:41.899Z,4.20
2018-04-16T03:34:48.608Z,3.80
2018-04-16T03:35:55.768Z,4.20
2018-04-16T03:37:03.429Z,3.80
2018-04-16T03:38:12.484Z,3.80
2018-04-16T03:39:19.389Z,4.10
2018-04-16T03:40:26.600Z,4.10
2018-04-16T03:41:33.494Z,4.10
2018-04-16T03:42:40.515Z,4.60
2018-04-16T03:43:47.354Z,3.60
2018-04-16T03:45:00.315Z,4.00
2018-04-16T03:46:07.236Z,4.00
2018-04-16T03:47:15.194Z,4.30
2018-04-16T03:48:22.143Z,4.00
2018-04-16T03:49:28.968Z,4.00
2018-04-16T03:50:36.159Z,4.50
2018-04-16T03:51:43.062Z,4.00
2018-04-16T03:52:49.915Z,4.40
2018-04-16T03:53:56.699Z,3.90
2018-04-16T03:55:03.484Z,4.20
2018-04-16T03:56:10.321Z,4.00
2018-04-16T03:57:17.018Z,4.20
2018-04-16T03:58:23.742Z,3.90
2018-04-16T03:59:30.542Z,4.10
2018-04-16T04:00:37.261Z,4.10
2018-04-16T04:01:44.001Z,3.80
2018-04-16T04:02:50.711Z,3.80
2018-04-16T04:03:57.420Z,4.10
2018-04-16T04:05:04.163Z,3.80
2018-04-16T04:06:11.131Z,3.80
2018-04-16T04:07:17.828Z,4.00
2018-04-16T04:08:24.567Z,4.00
2018-04-16T04:09:31.628Z,4.00
2018-04-16T04:10:38.334Z,3.90
2018-04-16T04:11:45.079Z,4.10
2018-04-16T04:12:52.220Z,3.90
2018-04-16T04:13:59.041Z,4.20
2018-04-16T04:15:05.736Z,3.80
2018-04-16T04:16:12.446Z,4.10
2018-04-16T04:17:19.226Z,4.00
2018-04-16T04:18:25.954Z,3.80
2018-04-16T04:19:32.747Z,3.80
2018-04-16T04:20:39.459Z,3.40
2018-04-16T04:21:46.178Z,3.70
2018-04-16T04:22:52.910Z,3.40
2018-04-16T04:23:59.818Z,3.40
2018-04-16T04:25:09.327Z,3.70
2018-04-16T04:26:16.133Z,3.70
2018-04-16T04:27:23.069Z,3.90
2018-04-16T04:28:29.768Z,3.60
2018-04-16T04:29:39.639Z,3.60
2018-04-16T04:30:46.408Z,4.20
2018-04-16T04:31:53.134Z,4.60
2018-04-16T04:32:59.950Z,3.90
2018-04-16T04:34:06.679Z,3.80
2018-04-16T04:35:13.394Z,3.70
2018-04-16T04:36:20.192Z,3.50
2018-04-16T04:37:27.024Z,4.10
2018-04-16T04:38:33.780Z,3.80
2018-04-16T04:39:40.755Z,3.70
2018-04-16T04:40:47.487Z,3.80
2018-04-16T04:41:54.250Z,3.60
2018-04-16T04:43:00.990Z,3.70
2018-04-16T04:44:07.704Z,4.30
2018-04-16T04:45:14.597Z,4.10
2018-04-16T04:46:21.324Z,4.40
2018-04-16T04:47:28.052Z,4.30
2018-04-16T04:48:34.775Z,4.00
2018-04-16T04:49:41.587Z,4.60
2018-04-16T04:50:48.307Z,4.20
2018-04-16T04:51:55.051Z,4.50
2018-04-16T04:53:02.219Z,3.90
2018-04-16T04:54:08.897Z,4.00
2018-04-16T04:55:15.802Z,3.70
2018-04-16T04:56:22.810Z,4.10
2018-04-16T04:57:29.591Z,3.60
2018-04-16T04:58:36.336Z,4.10
2018-04-16T04:59:43.301Z,4.10
2018-04-16T05:00:50.058Z,3.90
2018-04-16T05:01:56.779Z,4.40
2018-04-16T05:03:03.559Z,3.70
2018-04-16T05:04:10.380Z,3.90
2018-04-16T05:05:17.126Z,3.30
2018-04-16T05:06:23.905Z,3.40
2018-04-16T05:07:30.799Z,4.10
2018-04-16T05:08:37.558Z,4.00
2018-04-16T05:09:44.308Z,4.20
2018-04-16T05:10:51.059Z,3.40
2018-04-16T05:11:57.823Z,4.10
2018-04-16T05:13:04.561Z,3.80
2018-04-16T05:14:11.319Z,3.70
2018-04-16T05:15:18.064Z,3.60
2018-04-16T05:16:24.884Z,4.00
2018-04-16T05:17:31.601Z,3.90
2018-04-16T05:18:38.373Z,4.00
2018-04-16T05:19:45.427Z,4.30
2018-04-16T05:20:52.223Z,4.30
2018-04-16T05:21:58.952Z,4.20
2018-04-16T05:23:05.736Z,4.10
2018-04-16T05:24:12.483Z,4.50
2018-04-16T05:25:19.259Z,4.20
2018-04-16T05:26:26.116Z,4.00
2018-04-16T05:27:32.862Z,3.80
2018-04-16T05:28:39.699Z,3.90
2018-04-16T05:29:46.424Z,4.30
2018-04-16T05:30:53.230Z,4.40
2018-04-16T05:31:59.991Z,4.40
2018-04-16T05:33:06.722Z,4.10
2018-04-16T05:34:13.493Z,4.70
2018-04-16T05:35:20.324Z,4.30
2018-04-16T05:36:27.072Z,7.10
2018-04-16T05:37:33.850Z,8.60
2018-04-16T05:38:40.608Z,8.70
2018-04-16T05:39:47.493Z,8.70
2018-04-16T05:40:54.242Z,8.40
2018-04-16T05:42:00.971Z,4.60
2018-04-16T05:43:08.076Z,4.50
2018-04-16T05:44:14.965Z,7.90
2018-04-16T05:45:21.796Z,28.10
2018-04-16T05:46:28.760Z,15.70
2018-04-16T05:47:35.522Z,6.60
2018-04-16T05:48:42.284Z,5.20
2018-04-16T05:49:49.103Z,7.90
2018-04-16T05:50:55.836Z,8.10
2018-04-16T05:52:02.587Z,8.50
2018-04-16T05:53:09.330Z,8.30
2018-04-16T05:54:16.123Z,9.00
2018-04-16T05:55:22.907Z,8.60
2018-04-16T05:56:29.669Z,9.40
2018-04-16T05:57:36.386Z,8.20
2018-04-16T05:58:43.168Z,9.00
2018-04-16T05:59:49.863Z,9.60
2018-04-16T06:00:56.603Z,9.00
2018-04-16T06:02:03.316Z,9.00
2018-04-16T06:03:10.047Z,8.60
2018-04-16T06:04:16.743Z,7.70
2018-04-16T06:05:23.706Z,5.60
2018-04-16T06:06:30.516Z,5.80
2018-04-16T06:07:37.354Z,6.40
2018-04-16T06:08:44.075Z,6.40
2018-04-16T06:09:50.867Z,6.00
2018-04-16T06:10:57.631Z,6.00
2018-04-16T06:12:04.375Z,5.90
2018-04-16T06:13:11.120Z,5.70
2018-04-16T06:14:17.835Z,5.90
2018-04-16T06:15:24.566Z,5.10
2018-04-16T06:16:31.303Z,6.00
2018-04-16T06:17:38.063Z,6.10
2018-04-16T06:18:44.794Z,6.50
2018-04-16T06:19:51.512Z,6.60
2018-04-16T06:20:58.276Z,6.20
2018-04-16T06:22:05.072Z,6.30
2018-04-16T06:23:11.799Z,6.80
2018-04-16T06:24:18.583Z,6.20
2018-04-16T06:25:25.329Z,6.20
2018-04-16T06:26:32.118Z,6.40
2018-04-16T06:27:38.871Z,5.40
2018-04-16T06:28:45.579Z,6.80
2018-04-16T06:29:52.489Z,7.70
2018-04-16T06:30:59.219Z,6.60
2018-04-16T06:32:06.086Z,6.20
2018-04-16T06:33:12.888Z,6.30
2018-04-16T06:34:19.595Z,6.40
2018-04-16T06:35:26.312Z,6.20
2018-04-16T06:36:33.107Z,6.50
2018-04-16T06:37:39.818Z,6.80
2018-04-16T06:38:46.832Z,5.90
2018-04-16T06:39:53.268Z,6.10
2018-04-16T06:40:59.991Z,6.90
2018-04-16T06:42:06.815Z,7.10
2018-04-16T06:43:13.553Z,7.40
2018-04-16T06:44:20.295Z,7.00
2018-04-16T06:45:27.063Z,8.20
2018-04-16T06:46:33.775Z,7.60
2018-04-16T06:47:40.607Z,8.60
2018-04-16T06:48:47.388Z,8.10
2018-04-16T06:49:54.083Z,8.20
2018-04-16T06:51:00.823Z,8.20
2018-04-16T06:52:07.540Z,8.10
2018-04-16T06:53:14.320Z,8.90
2018-04-16T06:54:21.115Z,8.40
2018-04-16T06:55:27.852Z,8.10
2018-04-16T06:56:34.607Z,8.50
2018-04-16T06:57:41.532Z,7.70
2018-04-16T06:58:48.316Z,8.10
2018-04-16T06:59:55.068Z,8.10
2018-04-16T07:01:01.908Z,7.80
2018-04-16T07:02:08.697Z,6.70
2018-04-16T07:03:15.475Z,7.00
2018-04-16T07:04:27.469Z,6.90
2018-04-16T07:05:34.276Z,6.70
2018-04-16T07:06:41.048Z,7.00
2018-04-16T07:07:47.921Z,7.40
2018-04-16T07:08:49.695Z,6.30
2018-04-16T07:09:56.436Z,5.70
2018-04-16T07:11:03.178Z,6.70
2018-04-16T07:12:09.957Z,7.00
2018-04-16T07:13:16.695Z,6.90
2018-04-16T07:14:23.460Z,7.20
2018-04-16T07:15:30.219Z,7.10
2018-04-16T07:16:36.996Z,6.80
2018-04-16T07:17:43.821Z,6.90
2018-04-16T07:18:50.582Z,6.60
2018-04-16T07:19:57.427Z,6.90
2018-04-16T07:21:04.263Z,6.50
2018-04-16T07:22:10.993Z,7.00
2018-04-16T07:23:17.831Z,6.30
2018-04-16T07:24:24.628Z,7.40
2018-04-16T07:25:31.676Z,8.30
2018-04-16T07:26:43.690Z,8.70
2018-04-16T07:27:45.483Z,8.80
2018-04-16T07:28:52.218Z,8.60
2018-04-16T07:29:59.183Z,7.00
2018-04-16T07:31:05.928Z,7.00
2018-04-16T07:32:12.829Z,6.80
2018-04-16T07:33:19.469Z,6.60
2018-04-16T07:34:26.380Z,6.70
2018-04-16T07:35:33.158Z,6.10
2018-04-16T07:36:39.939Z,6.60
2018-04-16T07:37:46.707Z,6.40
2018-04-16T07:38:53.455Z,6.20
2018-04-16T07:40:00.339Z,6.80
2018-04-16T07:41:07.191Z,6.00
2018-04-16T07:42:14.012Z,6.90
2018-04-16T07:43:20.847Z,6.70
2018-04-16T07:44:27.701Z,6.40
2018-04-16T07:45:34.799Z,6.70
2018-04-16T07:46:41.696Z,7.30
2018-04-16T07:47:48.558Z,6.70
2018-04-16T07:48:55.346Z,8.10
2018-04-16T07:50:02.085Z,7.00
2018-04-16T07:51:08.888Z,6.30
2018-04-16T07:52:15.659Z,7.50
2018-04-16T07:53:22.514Z,6.60
2018-04-16T07:54:29.255Z,6.40
2018-04-16T07:55:36.052Z,6.40
2018-04-16T07:56:42.831Z,7.00
2018-04-16T07:57:49.599Z,6.70
2018-04-16T07:58:56.346Z,7.00
2018-04-16T08:00:03.065Z,6.30
2018-04-16T08:01:09.820Z,6.10
2018-04-16T08:02:16.664Z,6.30
2018-04-16T08:03:23.399Z,7.00
2018-04-16T08:04:30.140Z,6.50
2018-04-16T08:05:37.175Z,7.40
2018-04-16T08:06:43.947Z,7.20
2018-04-16T08:07:50.735Z,7.50
2018-04-16T08:08:57.507Z,7.70
2018-04-16T08:10:04.231Z,7.20
2018-04-16T08:11:11.018Z,6.60
2018-04-16T08:12:17.936Z,6.90
2018-04-16T08:13:24.731Z,6.40
2018-04-16T08:14:31.966Z,6.20
2018-04-16T08:15:38.806Z,5.70
2018-04-16T08:16:50.854Z,6.30
2018-04-16T08:17:52.590Z,5.90
2018-04-16T08:18:59.355Z,6.10
2018-04-16T08:20:06.113Z,6.60
2018-04-16T08:21:18.097Z,5.60
2018-04-16T08:22:19.883Z,6.00
2018-04-16T08:23:26.651Z,6.10
2018-04-16T08:24:33.447Z,6.00
2018-04-16T08:25:45.368Z,5.90
2018-04-16T08:26:47.388Z,5.60
2018-04-16T08:27:54.185Z,5.80
2018-04-16T08:29:01.030Z,5.40
2018-04-16T08:30:07.818Z,5.50
2018-04-16T08:31:14.582Z,4.90
2018-04-16T08:32:21.475Z,5.80
2018-04-16T08:33:28.279Z,4.90
2018-04-16T08:34:35.031Z,5.50
2018-04-16T08:35:41.887Z,5.20
2018-04-16T08:36:48.790Z,5.10
2018-04-16T08:37:55.658Z,5.90
2018-04-16T08:39:02.408Z,4.70
2018-04-16T08:40:09.514Z,5.40
2018-04-16T08:41:16.270Z,5.70
2018-04-16T08:42:23.023Z,5.50
2018-04-16T08:43:29.857Z,5.50
2018-04-16T08:44:36.631Z,4.80
2018-04-16T08:45:43.390Z,4.30
2018-04-16T08:46:50.236Z,4.50
2018-04-16T08:47:57.064Z,4.50
2018-04-16T08:49:03.833Z,4.10
2018-04-16T08:50:10.644Z,4.30
2018-04-16T08:51:17.410Z,4.50
2018-04-16T08:52:24.178Z,5.40
2018-04-16T08:53:31.038Z,5.10
2018-04-16T08:54:42.979Z,4.80
2018-04-16T08:55:49.738Z,5.00
2018-04-16T08:56:56.783Z,5.00
2018-04-16T08:58:03.499Z,4.90
2018-04-16T08:59:05.347Z,4.70
2018-04-16T09:00:17.328Z,5.60
2018-04-16T09:01:19.136Z,4.80
2018-04-16T09:02:31.069Z,3.70
2018-04-16T09:03:37.907Z,3.10
2018-04-16T09:04:39.767Z,2.80
2018-04-16T09:05:51.838Z,3.20
2018-04-16T09:06:53.771Z,3.10
2018-04-16T09:08:05.772Z,2.90
2018-04-16T09:09:12.795Z,3.10
2018-04-16T09:10:14.642Z,3.10
2018-04-16T09:11:26.612Z,2.70
2018-04-16T09:12:28.435Z,3.10
2018-04-16T09:13:40.239Z,3.20
2018-04-16T09:14:47.314Z,3.70
2018-04-16T09:15:49.223Z,3.80
2018-04-16T09:17:01.196Z,3.70
2018-04-16T09:18:08.224Z,3.20
2018-04-16T09:19:09.976Z,3.60
2018-04-16T09:20:16.843Z,2.90
2018-04-16T09:21:23.628Z,3.90
2018-04-16T09:22:30.428Z,3.50
2018-04-16T09:23:37.323Z,3.50
2018-04-16T09:24:44.137Z,3.70
2018-04-16T09:25:50.994Z,3.50
2018-04-16T09:26:57.766Z,4.20
2018-04-16T09:28:04.584Z,3.90
2018-04-16T09:29:11.424Z,3.20
2018-04-16T09:30:18.151Z,3.40
2018-04-16T09:31:24.912Z,4.10
2018-04-16T09:32:36.888Z,3.10
2018-04-16T09:33:38.751Z,3.10
2018-04-16T09:34:45.575Z,4.00
2018-04-16T09:35:52.355Z,3.60
2018-04-16T09:36:59.070Z,3.40
2018-04-16T09:38:05.831Z,3.30
2018-04-16T09:39:12.579Z,3.70
2018-04-16T09:40:19.340Z,3.20
2018-04-16T09:41:26.109Z,3.20
2018-04-16T09:42:32.855Z,3.40
2018-04-16T09:43:39.590Z,3.10
2018-04-16T09:44:46.334Z,3.00
2018-04-16T09:45:53.106Z,3.50
2018-04-16T09:46:59.867Z,2.90
2018-04-16T09:48:06.638Z,3.20
2018-04-16T09:49:13.415Z,2.80
2018-04-16T09:50:20.254Z,2.70
2018-04-16T09:51:27.082Z,2.90
2018-04-16T09:52:33.820Z,2.50
2018-04-16T09:53:40.640Z,2.50
2018-04-16T09:54:47.471Z,3.10
2018-04-16T09:55:54.388Z,2.50
2018-04-16T09:57:01.251Z,2.40
2018-04-16T09:58:08.047Z,2.80
2018-04-16T09:59:14.802Z,2.80
2018-04-16T10:00:21.560Z,2.70
2018-04-16T10:01:28.537Z,2.50
2018-04-16T10:02:35.319Z,2.50
2018-04-16T10:03:42.217Z,2.70
2018-04-16T10:04:49.251Z,2.80
2018-04-16T10:05:56.025Z,2.70
2018-04-16T10:07:02.846Z,2.20
2018-04-16T10:08:09.672Z,2.70
2018-04-16T10:09:16.479Z,2.50
2018-04-16T10:10:23.255Z,2.60
2018-04-16T10:11:30.130Z,2.60
2018-04-16T10:12:36.927Z,2.80
2018-04-16T10:13:43.668Z,2.60
2018-04-16T10:14:50.399Z,2.60
2018-04-16T10:15:57.468Z,2.20
2018-04-16T10:17:04.223Z,3.00
2018-04-16T10:18:10.986Z,2.90
2018-04-16T10:19:22.874Z,2.80
2018-04-16T10:20:24.592Z,3.50
2018-04-16T10:21:31.488Z,2.90
2018-04-16T10:22:38.251Z,2.80
2018-04-16T10:23:44.986Z,3.00
2018-04-16T10:24:51.840Z,3.00
2018-04-16T10:25:58.618Z,3.80
2018-04-16T10:27:05.387Z,4.50
2018-04-16T10:28:12.239Z,4.50
2018-04-16T10:29:19.341Z,4.10
2018-04-16T10:30:26.132Z,3.40
2018-04-16T10:31:32.884Z,3.50
2018-04-16T10:32:39.829Z,3.90
2018-04-16T10:33:46.599Z,3.40
2018-04-16T10:34:53.351Z,3.10
2018-04-16T10:36:00.238Z,3.60
2018-04-16T10:37:06.988Z,3.00
2018-04-16T10:38:13.780Z,3.10
2018-04-16T10:39:20.656Z,2.60
2018-04-16T10:40:27.423Z,3.00
2018-04-16T10:41:34.200Z,2.60
2018-04-16T10:42:40.946Z,2.80
2018-04-16T10:43:47.709Z,2.80
2018-04-16T10:44:54.527Z,2.80
2018-04-16T10:46:01.292Z,2.70
2018-04-16T10:47:13.283Z,2.60
2018-04-16T10:48:15.032Z,2.60
2018-04-16T10:49:21.906Z,3.10
2018-04-16T10:50:28.659Z,3.00
2018-04-16T10:51:35.403Z,2.80
2018-04-16T10:52:42.200Z,2.90
2018-04-16T10:53:48.970Z,2.50
2018-04-16T10:54:56.020Z,2.60
2018-04-16T10:56:03.096Z,2.20
2018-04-16T10:57:09.367Z,1.90
2018-04-16T10:58:16.214Z,2.90
2018-04-16T10:59:23.022Z,2.70
2018-04-16T11:00:29.819Z,2.70
2018-04-16T11:01:36.581Z,2.30
2018-04-16T11:02:43.371Z,2.30
2018-04-16T11:03:50.239Z,2.90
2018-04-16T11:04:57.033Z,2.60
2018-04-16T11:06:03.855Z,2.30
2018-04-16T11:07:10.636Z,2.30
2018-04-16T11:08:17.427Z,3.00
2018-04-16T11:09:24.200Z,2.40
2018-04-16T11:10:31.074Z,2.60
2018-04-16T11:11:37.822Z,2.40
2018-04-16T11:12:49.922Z,2.70
2018-04-16T11:13:51.736Z,2.60
2018-04-16T11:14:58.617Z,2.40
2018-04-16T11:16:05.366Z,3.10
2018-04-16T11:17:12.145Z,2.70
2018-04-16T11:18:19.027Z,2.50
2018-04-16T11:19:31.068Z,2.70
2018-04-16T11:20:32.835Z,2.40
2018-04-16T11:21:39.614Z,2.70
2018-04-16T11:22:46.379Z,3.00
2018-04-16T11:23:53.338Z,2.40
2018-04-16T11:25:00.189Z,2.90
2018-04-16T11:26:07.030Z,3.00
2018-04-16T11:27:13.853Z,2.80
2018-04-16T11:28:20.687Z,2.90
2018-04-16T11:29:27.589Z,2.80
2018-04-16T11:30:34.420Z,3.00
2018-04-16T11:31:41.202Z,2.90
2018-04-16T11:32:48.182Z,3.50
2018-04-16T11:33:54.979Z,3.20
2018-04-16T11:35:01.752Z,2.60
2018-04-16T11:36:08.775Z,3.10
2018-04-16T11:37:15.587Z,2.60
2018-04-16T11:38:22.650Z,3.40
2018-04-16T11:39:29.662Z,2.80
2018-04-16T11:40:36.206Z,3.40
2018-04-16T11:41:43.142Z,3.50
2018-04-16T11:42:49.915Z,2.80
2018-04-16T11:43:56.933Z,3.20
2018-04-16T11:45:03.880Z,3.00
2018-04-16T11:46:11.260Z,3.10
2018-04-16T11:47:17.700Z,3.10
2018-04-16T11:48:24.472Z,3.90
2018-04-16T11:49:31.267Z,3.00
2018-04-16T11:50:38.151Z,3.60
2018-04-16T11:51:44.920Z,3.10
2018-04-16T11:52:51.759Z,3.40
2018-04-16T11:53:58.576Z,3.40
2018-04-16T11:55:05.378Z,3.10
2018-04-16T11:56:12.127Z,3.20
2018-04-16T11:57:18.849Z,3.40
2018-04-16T11:58:25.660Z,2.70
2018-04-16T11:59:32.624Z,3.10
2018-04-16T12:00:39.451Z,3.80
2018-04-16T12:01:46.183Z,3.60
2018-04-16T12:02:53.255Z,3.00
2018-04-16T12:04:00.020Z,3.30
2018-04-16T12:05:06.788Z,3.20
2018-04-16T12:06:13.918Z,3.70
2018-04-16T12:07:20.816Z,3.20
2018-04-16T12:08:27.600Z,2.90
2018-04-16T12:09:34.359Z,2.70
2018-04-16T12:10:41.266Z,3.30
2018-04-16T12:11:53.212Z,3.30
2018-04-16T12:12:55.019Z,3.00
2018-04-16T12:14:01.781Z,2.60
2018-04-16T12:15:08.522Z,2.80
2018-04-16T12:16:15.346Z,3.00
2018-04-16T12:17:22.112Z,2.90
2018-04-16T12:18:28.918Z,2.80
2018-04-16T12:19:35.674Z,3.10
2018-04-16T12:20:42.481Z,3.50
2018-04-16T12:21:49.203Z,3.30
2018-04-16T12:22:55.935Z,3.00
2018-04-16T12:24:02.727Z,3.30
2018-04-16T12:24:20.916Z,3.20
2018-04-16T12:25:27.820Z,3.10
2018-04-16T12:26:34.617Z,3.50
2018-04-16T12:27:41.591Z,2.70
2018-04-16T12:28:48.287Z,3.10
2018-04-16T12:29:55.017Z,3.00
2018-04-16T12:31:01.886Z,3.40
2018-04-16T12:32:08.651Z,2.80
2018-04-16T12:33:15.391Z,3.20
2018-04-16T12:34:22.251Z,3.30
2018-04-16T12:35:29.048Z,4.00
2018-04-16T12:36:35.810Z,3.70
2018-04-16T12:37:42.546Z,3.30
2018-04-16T12:38:49.339Z,2.90
2018-04-16T12:39:56.098Z,2.70
2018-04-16T12:41:02.869Z,3.30
2018-04-16T12:42:09.628Z,2.80
2018-04-16T12:43:16.490Z,3.40
2018-04-16T12:44:23.248Z,3.20
2018-04-16T12:45:29.996Z,3.10
2018-04-16T12:46:36.792Z,3.10
2018-04-16T12:47:43.591Z,2.80
2018-04-16T12:48:50.359Z,2.90
2018-04-16T12:49:57.223Z,3.10
2018-04-16T12:51:03.974Z,3.10
2018-04-16T12:52:10.755Z,3.10
2018-04-16T12:53:17.492Z,2.30
2018-04-16T12:54:24.268Z,3.00
2018-04-16T12:55:31.051Z,2.90
2018-04-16T12:56:37.826Z,2.70
2018-04-16T12:57:45.031Z,3.00
2018-04-16T12:58:51.868Z,3.00
2018-04-16T12:59:58.612Z,3.00
2018-04-16T13:01:05.379Z,3.00
2018-04-16T13:02:12.113Z,3.30
2018-04-16T13:03:18.956Z,3.10
2018-04-16T13:04:25.667Z,2.80
2018-04-16T13:05:32.428Z,3.10
2018-04-16T13:06:39.197Z,5.00
2018-04-16T13:07:46.075Z,3.20
2018-04-16T13:08:52.993Z,2.80
2018-04-16T13:09:59.844Z,2.70
2018-04-16T13:11:06.625Z,3.00
2018-04-16T13:12:13.402Z,2.90
2018-04-16T13:13:20.251Z,3.30
2018-04-16T13:14:26.996Z,3.10
2018-04-16T13:15:33.727Z,3.70
2018-04-16T13:16:40.471Z,3.90
2018-04-16T13:17:47.325Z,3.60
2018-04-16T13:18:54.120Z,4.50
2018-04-16T13:20:00.862Z,4.10
2018-04-16T13:21:13.060Z,3.80
2018-04-16T13:22:14.853Z,3.30
2018-04-16T13:23:26.803Z,5.50
2018-04-16T13:24:28.695Z,3.60
2018-04-16T13:25:35.519Z,3.60
2018-04-16T13:26:42.286Z,3.90
2018-04-16T13:27:49.165Z,5.00
2018-04-16T13:28:55.976Z,3.40
2018-04-16T13:30:07.981Z,3.50
2018-04-16T13:31:09.743Z,3.20
2018-04-16T13:32:16.497Z,3.20
2018-04-16T13:33:23.302Z,3.10
2018-04-16T13:34:30.062Z,3.20
2018-04-16T13:35:36.832Z,3.30
2018-04-16T13:36:43.587Z,3.30
2018-04-16T13:37:50.374Z,3.50
2018-04-16T13:38:57.176Z,3.30
2018-04-16T13:40:03.914Z,3.20
2018-04-16T13:41:10.679Z,3.60
2018-04-16T13:42:17.474Z,3.30
2018-04-16T13:43:24.218Z,3.60
2018-04-16T13:44:30.992Z,3.50
2018-04-16T13:45:37.711Z,3.40
2018-04-16T13:46:44.551Z,2.90
2018-04-16T13:47:51.289Z,3.10
2018-04-16T13:48:58.028Z,3.20
2018-04-16T13:50:04.803Z,3.20
2018-04-16T13:51:11.613Z,3.20
2018-04-16T13:52:18.318Z,3.50
2018-04-16T13:53:25.080Z,3.60
2018-04-16T13:54:31.843Z,3.90
2018-04-16T13:55:38.727Z,5.10
2018-04-16T13:56:45.470Z,4.80
2018-04-16T13:57:52.231Z,32.50
2018-04-16T13:58:58.964Z,13.50
2018-04-16T14:00:05.794Z,5.80
2018-04-16T14:01:12.556Z,4.10
2018-04-16T14:02:19.317Z,4.20
2018-04-16T14:03:26.059Z,9.60
2018-04-16T14:04:32.871Z,11.10
2018-04-16T14:05:39.616Z,7.90
2018-04-16T14:06:46.373Z,6.70
2018-04-16T14:07:53.115Z,5.30
2018-04-16T14:08:59.943Z,4.30
2018-04-16T14:10:06.775Z,3.70
2018-04-16T14:11:13.767Z,3.90
2018-04-16T14:12:20.523Z,3.60
2018-04-16T14:13:27.581Z,3.60
2018-04-16T14:14:34.316Z,3.00
2018-04-16T14:15:41.122Z,3.30
2018-04-16T14:16:47.840Z,3.80
2018-04-16T14:17:54.632Z,3.30
2018-04-16T14:19:01.375Z,3.10
2018-04-16T14:20:08.133Z,2.80
2018-04-16T14:21:14.899Z,3.30
2018-04-16T14:22:21.734Z,3.00
2018-04-16T14:23:28.547Z,3.20
2018-04-16T14:24:35.348Z,3.10
2018-04-16T14:25:47.343Z,3.10
2018-04-16T14:26:49.424Z,2.70
2018-04-16T14:27:56.267Z,2.90
2018-04-16T14:29:03.202Z,3.50
2018-04-16T14:30:09.878Z,3.50
2018-04-16T14:31:16.731Z,3.20
2018-04-16T14:32:23.558Z,2.90
2018-04-16T14:33:30.652Z,3.10
2018-04-16T14:34:37.508Z,3.00
2018-04-16T14:35:44.314Z,3.00
2018-04-16T14:36:51.483Z,3.30
2018-04-16T14:37:58.376Z,2.90
2018-04-16T14:39:05.173Z,3.30
2018-04-16T14:40:12.225Z,3.00
2018-04-16T14:41:19.122Z,3.20
2018-04-16T14:42:25.951Z,3.20
2018-04-16T14:43:33.106Z,2.60
2018-04-16T14:44:39.941Z,3.00
2018-04-16T14:45:46.751Z,2.90
2018-04-16T14:46:53.531Z,2.70
2018-04-16T14:48:00.350Z,3.00
2018-04-16T14:49:07.074Z,3.00
2018-04-16T14:50:13.896Z,2.70
2018-04-16T14:51:20.650Z,2.90
2018-04-16T14:52:27.408Z,3.20
2018-04-16T14:53:34.191Z,3.00
2018-04-16T14:54:41.172Z,3.10
2018-04-16T14:55:47.951Z,3.20
2018-04-16T14:56:54.808Z,3.00
2018-04-16T14:58:01.663Z,3.00
2018-04-16T14:59:08.440Z,3.40
2018-04-16T15:00:15.320Z,3.00
2018-04-16T15:01:22.119Z,3.60
2018-04-16T15:02:28.904Z,3.10
2018-04-16T15:03:35.770Z,2.80
2018-04-16T15:04:42.664Z,2.90
2018-04-16T15:05:49.517Z,3.10
2018-04-16T15:06:56.535Z,3.20
2018-04-16T15:08:03.292Z,3.00
2018-04-16T15:09:10.095Z,3.20
2018-04-16T15:10:16.892Z,3.10
2018-04-16T15:11:23.720Z,2.80